Auburn, Illinois
Current Conditions -  °F | °C
As of 1:52 PM on Thursday 30 Oct 2014 (Local Time) from KSPI Reporting Station
Overcast Overcast  
Wind Chill: 52°   Ceiling: 9000
Heat Index: 52°   Visibility: 10mi
Dew Point: 42°   Wind: 13mph
Humidity: 69%   Direction: 150°SSE
Pressure: 30.04"   Gusts: NA
Location:  39.59°N, 89.75°W
Report Text: KSPI 301852Z 15011KT 10SM SCT070 OVC090 11/06 A3004 RMK AO2 RAB04E50 PRESFR SLP174 P0000 T01110056
Loading
Personal Weather Stations






























Interactive Weather Map
Tropical Storm Tracking
New forecast layout! Learn more

10-Day Weather Forecast

Advertisements
Track Severe Weather on mobile